createdAt,value
2022-08-17T00:03:43.629Z,77.61
2022-08-17T00:08:43.564Z,77.41
2022-08-17T00:13:43.496Z,77.71
2022-08-17T00:19:06.566Z,77.81
2022-08-17T00:23:49.223Z,77.55
2022-08-17T00:28:43.307Z,77.64
2022-08-17T00:33:43.244Z,77.55
2022-08-17T00:38:43.175Z,77.64
2022-08-17T00:43:43.103Z,77.44
2022-08-17T00:48:43.049Z,77.14
2022-08-17T00:53:42.984Z,77.24
2022-08-17T00:58:42.914Z,77.44
2022-08-17T01:03:42.849Z,77.64
2022-08-17T01:08:42.780Z,78.08
2022-08-17T01:13:42.715Z,78.28
2022-08-17T01:18:42.657Z,78.93
2022-08-17T01:23:42.590Z,79.43
2022-08-17T01:28:54.397Z,79.52
2022-08-17T01:33:43.473Z,79.63
2022-08-17T01:38:42.385Z,79.76
2022-08-17T01:43:42.303Z,80.27
2022-08-17T01:48:42.256Z,80.07
2022-08-17T01:53:42.177Z,80.41
2022-08-17T01:58:42.107Z,80.31
2022-08-17T02:03:42.044Z,80.21
2022-08-17T02:09:01.765Z,80.60
2022-08-17T02:13:42.952Z,80.85
2022-08-17T02:18:41.843Z,80.74
2022-08-17T02:23:41.780Z,81.25
2022-08-17T02:28:41.716Z,81.25
2022-08-17T02:33:43.745Z,81.15
2022-08-17T02:38:41.605Z,81.39
2022-08-17T02:43:41.527Z,81.89
2022-08-17T02:48:41.467Z,81.79
2022-08-17T02:53:41.419Z,82.09
2022-08-17T02:58:41.350Z,82.09
2022-08-17T03:03:41.278Z,81.69
2022-08-17T03:08:41.222Z,81.79
2022-08-17T03:13:41.169Z,80.78
2022-08-17T03:18:41.099Z,81.09
2022-08-17T03:23:41.071Z,81.18
2022-08-17T03:28:40.981Z,81.32
2022-08-17T03:33:40.905Z,81.23
2022-08-17T03:38:40.835Z,82.03
2022-08-17T03:43:40.797Z,82.47
2022-08-17T03:48:40.718Z,82.98
2022-08-17T03:53:40.653Z,82.98
2022-08-17T03:58:40.579Z,83.08
2022-08-17T04:03:40.539Z,83.08
2022-08-17T04:08:40.476Z,83.28
2022-08-17T04:13:40.396Z,83.62
2022-08-17T04:18:40.338Z,83.62
2022-08-17T04:23:40.277Z,83.31
2022-08-17T04:28:40.200Z,83.02
2022-08-17T04:33:40.149Z,82.81
2022-08-17T04:38:40.064Z,82.58
2022-08-17T04:43:40.004Z,81.87
2022-08-17T04:48:39.932Z,79.24
2022-08-17T04:53:39.879Z,77.86
2022-08-17T04:58:39.809Z,77.02
2022-08-17T05:03:39.754Z,76.08
2022-08-17T05:08:39.668Z,76.14
2022-08-17T05:13:39.618Z,75.64
2022-08-17T05:18:39.557Z,74.67
2022-08-17T05:23:42.470Z,74.09
2022-08-17T05:28:39.420Z,71.69
2022-08-17T05:33:43.928Z,69.72
2022-08-17T05:38:39.284Z,69.29
2022-08-17T05:43:39.225Z,68.32
2022-08-17T05:48:40.388Z,67.10
2022-08-17T05:53:39.150Z,66.33
2022-08-17T05:58:39.012Z,65.34
2022-08-17T06:03:38.963Z,63.58
2022-08-17T06:08:38.890Z,61.13
2022-08-17T06:13:38.823Z,59.79
2022-08-17T06:18:38.751Z,58.31
2022-08-17T06:23:38.702Z,56.25
2022-08-17T06:28:38.629Z,55.20
2022-08-17T06:33:38.575Z,54.36
2022-08-17T06:38:38.875Z,52.60
2022-08-17T06:43:38.438Z,51.98
2022-08-17T06:48:38.361Z,51.00
2022-08-17T06:53:38.318Z,51.17
2022-08-17T06:58:38.887Z,50.95
2022-08-17T07:03:38.246Z,51.44
2022-08-17T07:08:38.116Z,50.06
2022-08-17T07:13:38.067Z,47.83
2022-08-17T07:18:37.992Z,47.44
2022-08-17T07:23:37.918Z,47.71
2022-08-17T07:28:37.844Z,46.99
2022-08-17T07:33:37.789Z,47.54
2022-08-17T07:38:37.727Z,47.22
2022-08-17T07:43:37.661Z,47.22
2022-08-17T07:48:37.597Z,45.21
2022-08-17T07:53:37.742Z,45.92
2022-08-17T07:58:37.480Z,46.21
2022-08-17T08:03:37.409Z,46.11
2022-08-17T08:08:37.344Z,45.25
2022-08-17T08:13:37.292Z,44.35
2022-08-17T08:18:54.318Z,43.74
2022-08-17T08:23:38.187Z,43.15
2022-08-17T08:28:37.107Z,43.25
2022-08-17T08:33:37.034Z,43.71
2022-08-17T08:38:36.985Z,43.01
2022-08-17T08:43:36.893Z,41.93
2022-08-17T08:48:55.910Z,42.35
2022-08-17T08:53:37.809Z,42.62
2022-08-17T08:58:41.722Z,41.56
2022-08-17T09:03:51.872Z,41.25
2022-08-17T09:08:37.602Z,40.07
2022-08-17T09:13:36.498Z,39.19
2022-08-17T09:19:00.518Z,39.56
2022-08-17T09:23:37.388Z,40.25
2022-08-17T09:28:36.384Z,41.03
2022-08-17T09:33:36.242Z,40.42
2022-08-17T09:38:36.196Z,38.76
2022-08-17T09:43:36.110Z,38.27
2022-08-17T09:48:36.056Z,39.44
2022-08-17T09:53:36.041Z,40.03
2022-08-17T09:58:36.025Z,39.44
2022-08-17T10:03:35.841Z,39.56
2022-08-17T10:08:35.781Z,39.54
2022-08-17T10:13:35.712Z,40.42
2022-08-17T10:18:35.663Z,41.64
2022-08-17T10:23:35.579Z,40.95
2022-08-17T10:28:35.530Z,41.03
2022-08-17T10:33:35.452Z,40.07
2022-08-17T10:38:35.397Z,39.48
2022-08-17T10:43:35.323Z,38.70
2022-08-17T10:48:35.277Z,39.01
2022-08-17T10:53:35.200Z,39.60
2022-08-17T10:58:35.156Z,38.60
2022-08-17T11:03:35.077Z,38.80
2022-08-17T11:08:35.017Z,39.48
2022-08-17T11:13:34.958Z,39.73
2022-08-17T11:18:34.892Z,38.78
2022-08-17T11:23:34.823Z,39.36
2022-08-17T11:28:34.790Z,38.66
2022-08-17T11:33:36.867Z,38.86
2022-08-17T11:38:34.655Z,37.78
2022-08-17T11:43:36.501Z,38.19
2022-08-17T11:48:34.859Z,37.70
2022-08-17T11:53:34.464Z,37.80
2022-08-17T11:58:34.410Z,37.60
2022-08-17T12:03:34.411Z,37.62
2022-08-17T12:08:34.265Z,36.93
2022-08-17T12:13:38.462Z,37.13
2022-08-17T12:18:34.144Z,37.52
2022-08-17T12:23:34.073Z,38.29
2022-08-17T12:28:34.036Z,36.12
2022-08-17T12:33:33.955Z,36.60
2022-08-17T12:38:33.937Z,36.60
2022-08-17T12:43:33.840Z,36.12
2022-08-17T12:48:33.775Z,36.70
2022-08-17T12:53:33.698Z,36.02
2022-08-17T12:58:33.641Z,35.33
2022-08-17T13:03:36.465Z,34.55
2022-08-17T13:08:33.527Z,34.86
2022-08-17T13:13:33.447Z,35.63
2022-08-17T13:18:33.402Z,36.12
2022-08-17T13:23:33.333Z,34.84
2022-08-17T13:28:35.909Z,35.33
2022-08-17T13:33:43.457Z,35.36
2022-08-17T13:38:34.177Z,35.36
2022-08-17T13:43:33.076Z,35.46
2022-08-17T13:48:33.021Z,34.78
2022-08-17T13:53:33.189Z,35.27
2022-08-17T13:58:32.907Z,35.86
2022-08-17T14:03:32.842Z,36.05
2022-08-17T14:08:32.773Z,35.74
2022-08-17T14:13:32.715Z,35.35
2022-08-17T14:18:55.503Z,36.04
2022-08-17T14:23:33.609Z,34.66
2022-08-17T14:28:32.539Z,35.05
2022-08-17T14:33:32.460Z,34.66
2022-08-17T14:38:32.424Z,34.49
2022-08-17T14:43:32.332Z,35.07
2022-08-17T14:48:32.292Z,35.46
2022-08-17T14:53:32.221Z,34.58
2022-08-17T14:58:32.174Z,34.68
2022-08-17T15:03:32.104Z,34.88
2022-08-17T15:08:32.043Z,34.19
2022-08-17T15:13:31.972Z,34.49
2022-08-17T15:18:31.915Z,35.17
2022-08-17T15:23:31.845Z,35.07
2022-08-17T15:28:31.787Z,34.66
2022-08-17T15:33:31.714Z,34.66
2022-08-17T15:38:31.668Z,34.86
2022-08-17T15:43:31.589Z,34.76
2022-08-17T15:48:31.546Z,36.04
2022-08-17T15:53:31.490Z,35.65
2022-08-17T15:58:33.544Z,35.27
2022-08-17T16:04:01.308Z,36.15
2022-08-17T16:08:32.326Z,36.85
2022-08-17T16:13:31.236Z,36.09
2022-08-17T16:18:31.332Z,34.81
2022-08-17T16:23:31.102Z,36.87
2022-08-17T16:28:36.196Z,35.30
2022-08-17T16:33:30.982Z,36.58
2022-08-17T16:38:30.912Z,37.17
2022-08-17T16:43:30.845Z,36.58
2022-08-17T16:48:30.798Z,37.46
2022-08-17T16:53:30.730Z,36.97
2022-08-17T16:58:30.673Z,36.97
2022-08-17T17:03:30.611Z,37.68
2022-08-17T17:08:30.553Z,38.17
2022-08-17T17:13:30.461Z,37.10
2022-08-17T17:18:30.422Z,37.50
2022-08-17T17:23:30.347Z,38.09
2022-08-17T17:28:30.295Z,37.59
2022-08-17T17:33:31.119Z,37.51
2022-08-17T17:38:30.167Z,37.71
2022-08-17T17:43:45.362Z,37.71
2022-08-17T17:48:31.047Z,37.93
2022-08-17T17:53:35.047Z,38.32
2022-08-17T17:58:29.888Z,38.32
2022-08-17T18:03:29.819Z,39.22
2022-08-17T18:08:32.346Z,40.30
2022-08-17T18:13:29.692Z,40.22
2022-08-17T18:18:29.636Z,43.10
2022-08-17T18:23:29.574Z,44.20
2022-08-17T18:28:29.515Z,45.61
2022-08-17T18:33:29.431Z,46.61
2022-08-17T18:38:29.392Z,47.69
2022-08-17T18:43:44.171Z,48.31
2022-08-17T18:48:30.270Z,49.22
2022-08-17T18:53:33.170Z,49.84
2022-08-17T18:58:29.142Z,49.45
2022-08-17T19:03:29.073Z,49.86
2022-08-17T19:08:29.014Z,50.68
2022-08-17T19:13:28.938Z,50.80
2022-08-17T19:18:28.882Z,50.21
2022-08-17T19:23:28.814Z,50.23
2022-08-17T19:28:28.748Z,49.34
2022-08-17T19:33:28.682Z,50.43
2022-08-17T19:38:28.621Z,50.06
2022-08-17T19:43:28.558Z,50.85
2022-08-17T19:48:28.499Z,52.03
2022-08-17T19:53:41.960Z,52.96
2022-08-17T19:58:29.405Z,53.38
2022-08-17T20:03:28.291Z,53.99
2022-08-17T20:08:28.245Z,54.09
2022-08-17T20:13:33.296Z,54.32
2022-08-17T20:18:28.120Z,55.31
2022-08-17T20:23:28.031Z,55.24
2022-08-17T20:28:27.971Z,55.56
2022-08-17T20:33:27.913Z,55.56
2022-08-17T20:38:27.850Z,55.59
2022-08-17T20:43:27.775Z,55.59
2022-08-17T20:48:43.493Z,55.79
2022-08-17T20:53:28.682Z,55.49
2022-08-17T20:58:30.918Z,56.38
2022-08-17T21:03:27.535Z,57.11
2022-08-17T21:08:28.498Z,57.90
2022-08-17T21:13:27.396Z,57.83
2022-08-17T21:18:27.362Z,58.16
2022-08-17T21:23:27.283Z,58.55
2022-08-17T21:28:33.690Z,58.85
2022-08-17T21:33:27.153Z,59.47
2022-08-17T21:38:27.086Z,59.47
2022-08-17T21:43:27.014Z,59.57
2022-08-17T21:48:26.952Z,58.68
2022-08-17T21:53:32.241Z,58.21
2022-08-17T21:58:26.822Z,59.30
2022-08-17T22:03:26.740Z,59.60
2022-08-17T22:08:26.680Z,59.90
2022-08-17T22:13:29.556Z,60.13
2022-08-17T22:18:26.558Z,60.23
2022-08-17T22:23:26.490Z,60.23
2022-08-17T22:28:26.431Z,61.02
2022-08-17T22:33:26.343Z,60.96
2022-08-17T22:38:26.304Z,61.55
2022-08-17T22:43:26.743Z,61.28
2022-08-17T22:48:27.345Z,61.68
2022-08-17T22:53:26.079Z,61.88
2022-08-17T22:58:26.038Z,61.88
2022-08-17T23:03:26.102Z,62.41
2022-08-17T23:08:25.912Z,62.81
2022-08-17T23:13:25.843Z,63.01
2022-08-17T23:18:25.774Z,63.23
2022-08-17T23:23:25.704Z,63.23
2022-08-17T23:28:25.658Z,63.53
2022-08-17T23:33:25.595Z,63.94
2022-08-17T23:38:25.523Z,63.43
2022-08-17T23:43:28.053Z,64.27
2022-08-17T23:48:30.334Z,64.27
2022-08-17T23:53:26.357Z,64.36
2022-08-17T23:58:25.277Z,64.96
